Time;durP1;ratioP1;P1;durP2;ratioP2;P2;SDS_P1;SDS_P2;PMS_P1;PMS_P2;Temp;Humidity;BMP_temperature;BMP_pressure;BME280_temperature;BME280_humidity;BME280_pressure;Samples;Min_cycle;Max_cycle;Signal;HPM_P1;HPM_P2
2022/08/25 00:01:10;;;;;;;6.40;5.00;;;18.60;99.90;;;;;;5106506;28;20032;-57
2022/08/25 00:03:35;;;;;;;4.78;4.10;;;18.50;99.90;;;;;;5084138;28;20032;-52
2022/08/25 00:06:04;;;;;;;8.07;4.85;;;18.50;99.90;;;;;;5105959;28;20034;-52
2022/08/25 00:08:29;;;;;;;5.65;3.95;;;18.50;99.90;;;;;;5085485;28;20399;-55
2022/08/25 00:10:55;;;;;;;6.78;4.60;;;18.50;99.90;;;;;;5088226;28;20028;-54
2022/08/25 00:13:20;;;;;;;7.57;4.40;;;18.50;99.90;;;;;;5104468;28;20399;-54
2022/08/25 00:15:46;;;;;;;8.40;4.75;;;18.40;99.90;;;;;;5086932;28;20028;-55
2022/08/25 00:18:12;;;;;;;9.20;4.10;;;18.40;99.90;;;;;;5104387;28;20024;-52
2022/08/25 00:20:37;;;;;;;6.50;4.13;;;18.30;99.90;;;;;;5099182;28;20636;-56
2022/08/25 00:23:03;;;;;;;6.57;4.53;;;18.40;99.90;;;;;;5089078;28;20040;-55
2022/08/25 00:25:28;;;;;;;10.07;4.50;;;18.30;99.90;;;;;;5083828;28;20047;-53
2022/08/25 00:27:54;;;;;;;6.90;4.63;;;18.30;99.90;;;;;;5085761;28;20558;-51
2022/08/25 00:30:19;;;;;;;6.30;4.70;;;18.30;99.90;;;;;;5086839;28;20028;-53
2022/08/25 00:32:45;;;;;;;7.25;5.10;;;18.30;99.90;;;;;;5103720;28;20024;-53
2022/08/25 00:35:11;;;;;;;8.52;5.22;;;18.20;99.90;;;;;;5075997;28;20044;-52
2022/08/25 00:37:37;;;;;;;6.45;5.13;;;18.20;99.90;;;;;;5095998;28;20047;-56
2022/08/25 00:40:03;;;;;;;6.65;4.32;;;18.20;99.90;;;;;;5083124;28;20115;-53
2022/08/25 00:42:30;;;;;;;7.85;5.22;;;18.20;99.90;;;;;;5096339;28;20080;-55
2022/08/25 00:44:56;;;;;;;7.95;5.10;;;18.20;99.90;;;;;;5109070;28;20027;-50
2022/08/25 00:47:23;;;;;;;9.93;5.38;;;18.20;99.90;;;;;;5095812;28;20034;-54
2022/08/25 00:49:53;;;;;;;8.98;4.93;;;18.20;99.90;;;;;;5103876;28;20483;-51
2022/08/25 00:52:26;;;;;;;6.28;4.32;;;18.20;99.90;;;;;;5094008;28;20027;-52
2022/08/25 00:54:54;;;;;;;7.70;4.55;;;18.10;99.90;;;;;;5077542;28;20109;-54
2022/08/25 00:57:26;;;;;;;7.95;4.53;;;18.10;99.90;;;;;;5102825;28;20024;-56
2022/08/25 00:59:52;;;;;;;7.20;4.57;;;18.10;99.90;;;;;;5084530;28;20024;-54
2022/08/25 01:02:18;;;;;;;6.50;4.68;;;18.10;99.90;;;;;;5100818;28;20549;-52
2022/08/25 01:04:45;;;;;;;6.32;4.88;;;18.10;99.90;;;;;;5091466;28;20032;-52
2022/08/25 01:07:12;;;;;;;8.23;5.00;;;18.10;99.90;;;;;;5105788;28;20031;-51
2022/08/25 01:09:38;;;;;;;7.20;4.90;;;18.00;99.90;;;;;;5083323;28;20439;-53
2022/08/25 01:12:04;;;;;;;13.50;5.55;;;18.00;99.90;;;;;;5105059;28;20036;-55
2022/08/25 01:14:31;;;;;;;5.57;4.60;;;18.00;99.90;;;;;;5096222;28;20369;-55
2022/08/25 01:16:58;;;;;;;7.50;4.88;;;18.00;99.90;;;;;;5095473;28;20544;-52
2022/08/25 01:19:26;;;;;;;9.05;5.55;;;18.00;99.90;;;;;;5097770;28;20050;-54
2022/08/25 01:21:52;;;;;;;7.55;4.80;;;18.00;99.90;;;;;;5089765;28;20027;-52
2022/08/25 01:24:37;;;;;;;7.72;4.50;;;18.00;99.90;;;;;;5099158;28;20028;-53
2022/08/25 01:27:04;;;;;;;7.05;4.80;;;18.00;99.90;;;;;;5080201;28;20020;-55
2022/08/25 01:29:30;;;;;;;8.05;4.40;;;17.90;99.90;;;;;;5082606;28;20032;-52
2022/08/25 01:32:05;;;;;;;6.78;4.93;;;17.90;99.90;;;;;;5075041;28;20096;-54
2022/08/25 01:34:36;;;;;;;8.30;4.65;;;17.90;99.90;;;;;;5093225;28;20052;-51
2022/08/25 01:37:02;;;;;;;9.77;5.13;;;17.90;99.90;;;;;;5084488;28;20023;-55
2022/08/25 01:39:29;;;;;;;5.82;5.22;;;17.90;99.90;;;;;;5090346;28;20491;-54
2022/08/25 01:42:22;;;;;;;6.88;4.60;;;17.80;99.90;;;;;;5098960;28;20026;-54
2022/08/25 01:44:47;;;;;;;9.35;4.97;;;17.80;99.90;;;;;;5078426;28;20726;-53
2022/08/25 01:47:14;;;;;;;9.93;5.45;;;17.80;99.90;;;;;;5088179;28;20052;-56
2022/08/25 01:49:40;;;;;;;7.70;5.05;;;17.80;99.90;;;;;;5085569;28;20036;-56
2022/08/25 01:52:10;;;;;;;5.88;5.22;;;17.80;99.90;;;;;;5105507;28;20036;-56
2022/08/25 01:54:36;;;;;;;6.63;4.88;;;17.80;99.90;;;;;;5089736;28;20024;-53
2022/08/25 01:57:02;;;;;;;7.03;5.07;;;17.80;99.90;;;;;;5087405;28;20356;-55
2022/08/25 01:59:27;;;;;;;5.60;5.00;;;17.70;99.90;;;;;;5075404;28;20040;-56
2022/08/25 02:01:53;;;;;;;6.10;5.18;;;17.70;99.90;;;;;;5106438;28;20567;-53
2022/08/25 02:04:19;;;;;;;8.95;4.88;;;17.70;99.90;;;;;;5087497;28;20027;-56
2022/08/25 02:06:44;;;;;;;6.25;4.32;;;17.70;99.90;;;;;;5095828;28;20037;-54
2022/08/25 02:09:13;;;;;;;7.30;5.40;;;17.70;99.90;;;;;;5096516;28;20403;-56
2022/08/25 02:11:42;;;;;;;6.70;5.10;;;17.60;99.90;;;;;;5091902;28;20036;-57
2022/08/25 02:14:10;;;;;;;6.97;5.88;;;17.60;99.90;;;;;;5081248;28;20127;-56
2022/08/25 02:16:38;;;;;;;5.40;4.90;;;17.60;99.90;;;;;;5111354;28;20102;-56
2022/08/25 02:19:05;;;;;;;6.10;5.10;;;17.60;99.90;;;;;;5078439;28;20040;-54
2022/08/25 02:21:31;;;;;;;8.63;5.47;;;17.60;99.90;;;;;;5111183;28;20031;-56
2022/08/25 02:23:57;;;;;;;7.35;5.60;;;17.60;99.90;;;;;;5073795;28;20033;-58
2022/08/25 02:26:23;;;;;;;9.18;5.40;;;17.60;99.90;;;;;;5102966;28;20048;-55
2022/08/25 02:28:50;;;;;;;9.63;5.88;;;17.50;99.90;;;;;;5087907;28;20058;-56
2022/08/25 02:31:18;;;;;;;7.38;5.03;;;17.50;99.90;;;;;;5089061;28;20032;-57
2022/08/25 02:33:44;;;;;;;7.78;5.35;;;17.50;99.90;;;;;;5096066;28;20052;-56
2022/08/25 02:36:09;;;;;;;8.48;5.97;;;17.50;99.90;;;;;;5071009;28;20041;-56
2022/08/25 02:38:36;;;;;;;6.93;5.18;;;17.50;99.90;;;;;;5089282;28;20028;-57
2022/08/25 02:41:11;;;;;;;5.45;4.88;;;17.40;99.90;;;;;;5076433;27;20033;-56
2022/08/25 02:43:36;;;;;;;7.90;5.45;;;17.40;99.90;;;;;;5085756;28;20020;-55
2022/08/25 02:46:02;;;;;;;7.18;5.00;;;17.30;99.90;;;;;;5091448;28;20112;-53
2022/08/25 02:48:27;;;;;;;7.57;5.25;;;17.40;99.90;;;;;;5088397;28;20103;-56
2022/08/25 02:50:53;;;;;;;10.07;5.63;;;17.30;99.90;;;;;;5079289;28;20119;-56
2022/08/25 02:53:20;;;;;;;10.43;6.15;;;17.30;99.90;;;;;;5097046;28;20031;-56
2022/08/25 02:55:46;;;;;;;8.40;6.32;;;17.30;99.90;;;;;;5110560;28;20107;-55
2022/08/25 02:58:12;;;;;;;8.38;5.82;;;17.30;99.90;;;;;;5089676;28;20118;-54
2022/08/25 03:00:38;;;;;;;7.30;5.97;;;17.30;99.90;;;;;;5091389;28;20036;-54
2022/08/25 03:03:04;;;;;;;6.93;4.57;;;17.30;99.90;;;;;;5103789;28;20020;-55
2022/08/25 03:05:30;;;;;;;8.35;5.50;;;17.30;99.90;;;;;;5088402;28;20542;-56
2022/08/25 03:07:55;;;;;;;11.02;6.18;;;17.30;99.90;;;;;;5097156;28;20029;-55
2022/08/25 03:10:21;;;;;;;7.43;5.35;;;17.20;99.90;;;;;;5102089;28;20028;-53
2022/08/25 03:12:46;;;;;;;8.50;5.45;;;17.20;99.90;;;;;;5106023;28;20031;-53
2022/08/25 03:15:15;;;;;;;9.27;6.30;;;17.20;99.90;;;;;;5073058;28;20024;-53
2022/08/25 03:17:42;;;;;;;7.35;6.35;;;17.30;99.90;;;;;;5106279;28;20036;-57
2022/08/25 03:20:08;;;;;;;9.43;6.00;;;17.30;99.90;;;;;;5086303;28;20448;-56
2022/08/25 03:22:33;;;;;;;9.00;6.53;;;17.20;99.90;;;;;;5107317;28;20040;-55
2022/08/25 03:26:52;;;;;;;9.30;6.90;;;17.20;99.90;;;;;;5074585;28;20029;-55
2022/08/25 03:27:45;;;;;;;6.95;5.63;;;17.20;99.90;;;;;;5079908;28;20039;-54
2022/08/25 03:30:12;;;;;;;7.63;6.00;;;17.20;99.90;;;;;;5078016;28;20434;-54
2022/08/25 03:32:38;;;;;;;10.07;5.97;;;17.20;99.90;;;;;;5095695;28;20508;-56
2022/08/25 03:35:04;;;;;;;10.13;6.45;;;17.20;99.90;;;;;;5073208;28;20169;-56
2022/08/25 03:37:30;;;;;;;12.75;7.22;;;17.20;99.90;;;;;;5088831;28;20076;-57
2022/08/25 03:39:55;;;;;;;9.27;6.78;;;17.20;99.90;;;;;;5079943;28;20423;-56
2022/08/25 03:42:21;;;;;;;15.98;7.70;;;17.20;99.90;;;;;;5096195;28;20039;-52
2022/08/25 03:44:47;;;;;;;10.00;7.53;;;17.30;99.90;;;;;;5101909;28;20493;-57
2022/08/25 03:47:12;;;;;;;10.98;7.22;;;17.30;99.90;;;;;;5105791;28;20521;-57
2022/08/25 03:49:38;;;;;;;9.82;6.10;;;17.30;99.90;;;;;;5089084;28;20081;-57
2022/08/25 03:52:03;;;;;;;9.48;6.82;;;17.30;99.90;;;;;;5070179;28;20028;-57
2022/08/25 03:54:29;;;;;;;13.10;6.72;;;17.30;99.90;;;;;;5086401;28;20016;-55
2022/08/25 03:56:54;;;;;;;8.15;5.72;;;17.30;99.90;;;;;;5090978;28;20020;-55
2022/08/25 03:59:20;;;;;;;10.65;7.53;;;17.30;99.90;;;;;;5076160;28;20083;-56
2022/08/25 04:01:46;;;;;;;11.02;7.60;;;17.30;99.90;;;;;;5107833;28;20035;-58
2022/08/25 04:04:14;;;;;;;11.75;8.00;;;17.30;99.90;;;;;;5096933;28;20017;-57
2022/08/25 04:06:42;;;;;;;12.23;8.25;;;17.40;99.90;;;;;;5090651;28;20039;-57
2022/08/25 04:09:08;;;;;;;9.88;7.38;;;17.40;99.90;;;;;;5094358;28;20507;-57
2022/08/25 04:11:33;;;;;;;8.93;7.63;;;17.50;99.90;;;;;;5092950;28;20016;-55
2022/08/25 04:14:01;;;;;;;13.73;8.45;;;17.50;99.90;;;;;;5091149;28;20535;-55
2022/08/25 04:16:30;;;;;;;11.38;9.10;;;17.50;99.90;;;;;;5085321;28;20107;-56
2022/08/25 04:18:57;;;;;;;8.63;7.07;;;17.50;99.90;;;;;;5094716;28;20414;-55
2022/08/25 04:21:24;;;;;;;13.55;7.78;;;17.50;99.90;;;;;;5097477;28;20029;-56
2022/08/25 04:23:51;;;;;;;10.27;7.13;;;17.60;99.90;;;;;;5096132;28;20044;-52
2022/08/25 04:26:26;;;;;;;11.75;8.00;;;17.60;99.90;;;;;;5109281;28;20034;-54
2022/08/25 04:28:53;;;;;;;10.40;8.65;;;17.70;99.90;;;;;;5077657;28;20036;-56
2022/08/25 04:31:20;;;;;;;11.98;7.80;;;17.70;99.90;;;;;;5086861;28;20032;-57
2022/08/25 04:33:47;;;;;;;13.43;8.18;;;17.80;99.90;;;;;;5100327;28;20126;-56
2022/08/25 04:36:13;;;;;;;9.68;7.03;;;17.80;99.90;;;;;;5107707;28;20032;-56
2022/08/25 04:38:41;;;;;;;11.15;8.15;;;17.80;99.90;;;;;;5088958;28;20035;-53
2022/08/25 04:41:08;;;;;;;11.43;8.82;;;17.90;99.90;;;;;;5093045;28;20508;-54
2022/08/25 04:43:34;;;;;;;11.75;8.73;;;17.90;99.90;;;;;;5107441;28;20646;-57
2022/08/25 04:46:06;;;;;;;10.25;8.02;;;18.00;99.90;;;;;;5093486;27;20020;-57
2022/08/25 04:48:31;;;;;;;14.73;9.55;;;18.00;99.90;;;;;;5081503;28;20085;-55
2022/08/25 04:50:57;;;;;;;10.10;8.25;;;18.00;99.90;;;;;;5092940;28;20016;-57
2022/08/25 04:53:22;;;;;;;14.07;9.70;;;18.10;99.90;;;;;;5093053;28;20568;-53
2022/08/25 04:55:48;;;;;;;10.70;8.95;;;18.20;99.90;;;;;;5092018;28;20085;-55
2022/08/25 04:58:15;;;;;;;12.45;8.80;;;18.20;99.90;;;;;;5097499;28;20028;-57
2022/08/25 05:00:41;;;;;;;16.25;10.68;;;18.30;99.90;;;;;;5111366;28;20482;-56
2022/08/25 05:03:08;;;;;;;18.75;13.18;;;18.30;99.90;;;;;;5102934;28;20039;-54
2022/08/25 05:05:36;;;;;;;20.60;13.52;;;18.40;99.90;;;;;;5087587;28;20032;-53
2022/08/25 05:08:02;;;;;;;13.18;10.45;;;18.40;99.90;;;;;;5095601;28;20031;-58
2022/08/25 05:10:28;;;;;;;23.25;15.38;;;18.50;99.90;;;;;;5077324;28;20044;-53
2022/08/25 05:12:53;;;;;;;25.38;15.05;;;18.50;99.90;;;;;;5099745;28;20032;-52
2022/08/25 05:18:04;;;;;;;19.35;12.80;;;18.40;99.90;;;;;;5078166;28;20074;-56
2022/08/25 05:20:30;;;;;;;17.80;13.00;;;18.50;99.90;;;;;;5090873;28;20043;-55
2022/08/25 05:22:56;;;;;;;24.33;13.77;;;18.50;99.90;;;;;;5102138;28;20433;-54
2022/08/25 05:25:21;;;;;;;20.33;12.75;;;18.50;99.90;;;;;;5099233;28;20074;-54
2022/08/25 05:27:47;;;;;;;34.92;15.40;;;18.60;99.90;;;;;;5095635;28;20107;-56
2022/08/25 05:30:13;;;;;;;26.20;15.00;;;18.50;99.90;;;;;;5092356;28;20020;-56
2022/08/25 05:32:38;;;;;;;22.60;14.43;;;18.60;99.90;;;;;;5091255;28;20476;-56
2022/08/25 05:35:05;;;;;;;19.77;14.15;;;18.60;99.90;;;;;;5083620;28;20068;-57
2022/08/25 05:37:31;;;;;;;25.00;15.77;;;18.60;99.90;;;;;;5083958;28;20032;-54
2022/08/25 05:39:56;;;;;;;25.63;14.38;;;18.60;99.90;;;;;;5080553;28;20108;-53
2022/08/25 05:42:22;;;;;;;25.27;15.85;;;18.60;99.90;;;;;;5110518;28;20023;-56
2022/08/25 05:44:48;;;;;;;20.00;12.13;;;18.70;99.90;;;;;;5075730;28;20407;-56
2022/08/25 05:47:13;;;;;;;21.48;13.35;;;18.80;99.90;;;;;;5110581;28;20027;-53
2022/08/25 05:49:39;;;;;;;20.13;12.38;;;18.80;99.90;;;;;;5081694;28;20043;-63
2022/08/25 05:52:04;;;;;;;28.15;15.07;;;18.90;99.90;;;;;;5108745;28;20035;-63
2022/08/25 05:54:30;;;;;;;20.67;13.73;;;18.90;99.90;;;;;;5099117;28;20035;-62
2022/08/25 05:56:56;;;;;;;24.88;15.85;;;18.90;99.90;;;;;;5111097;28;20069;-63
2022/08/25 05:59:22;;;;;;;26.77;15.13;;;19.00;99.90;;;;;;5090319;28;20028;-63
2022/08/25 06:04:32;;;;;;;26.25;16.40;;;19.00;99.90;;;;;;5088979;28;20510;-63
2022/08/25 06:06:57;;;;;;;23.90;15.65;;;19.00;99.90;;;;;;5085406;28;20027;-63
2022/08/25 06:09:23;;;;;;;21.42;14.68;;;19.00;99.90;;;;;;5091881;28;20145;-63
2022/08/25 06:11:49;;;;;;;24.15;15.30;;;19.10;99.90;;;;;;5084273;28;20032;-63
2022/08/25 06:14:14;;;;;;;24.92;13.05;;;19.20;99.90;;;;;;5099080;28;20038;-63
2022/08/25 06:16:40;;;;;;;28.17;15.25;;;19.30;99.90;;;;;;5099725;28;20574;-63
2022/08/25 06:19:07;;;;;;;28.52;15.60;;;19.40;99.90;;;;;;5105661;28;20046;-63
2022/08/25 06:21:33;;;;;;;21.42;12.40;;;19.40;99.90;;;;;;5089560;28;20063;-63
2022/08/25 06:23:58;;;;;;;23.90;14.18;;;19.50;99.90;;;;;;5083145;28;20471;-63
2022/08/25 06:26:24;;;;;;;24.63;13.55;;;19.60;99.90;;;;;;5099596;28;20028;-61
2022/08/25 06:28:51;;;;;;;25.58;14.63;;;19.60;99.90;;;;;;5090407;28;20028;-61
2022/08/25 06:31:17;;;;;;;21.45;12.77;;;19.70;99.90;;;;;;5091461;28;20040;-61
2022/08/25 06:33:43;;;;;;;22.45;16.42;;;19.70;99.90;;;;;;5099556;28;20410;-60
2022/08/25 06:36:08;;;;;;;20.73;13.95;;;19.70;99.90;;;;;;5070371;28;20099;-61
2022/08/25 06:38:34;;;;;;;19.40;13.32;;;19.80;99.90;;;;;;5076739;28;20025;-61
2022/08/25 06:41:04;;;;;;;22.80;13.98;;;19.80;99.90;;;;;;5099497;28;20112;-62
2022/08/25 06:43:31;;;;;;;19.80;12.15;;;19.80;99.90;;;;;;5097064;28;20027;-61
2022/08/25 06:45:57;;;;;;;24.02;14.27;;;19.80;99.90;;;;;;5089755;28;20017;-62
2022/08/25 06:48:23;;;;;;;18.27;12.27;;;19.90;99.90;;;;;;5089181;28;20104;-62
2022/08/25 06:50:48;;;;;;;20.33;12.65;;;20.00;99.90;;;;;;5082642;28;20100;-62
2022/08/25 06:53:14;;;;;;;20.45;11.07;;;20.00;99.90;;;;;;5086109;28;20373;-62
2022/08/25 06:55:40;;;;;;;14.35;10.55;;;20.10;99.90;;;;;;5079299;28;20479;-62
2022/08/25 06:58:07;;;;;;;16.90;10.05;;;20.10;99.90;;;;;;5090717;28;20448;-62
2022/08/25 07:00:32;;;;;;;17.40;12.05;;;20.20;99.90;;;;;;5088087;28;20028;-62
2022/08/25 07:02:59;;;;;;;17.50;12.85;;;20.30;99.90;;;;;;5093527;28;20043;-62
2022/08/25 07:05:25;;;;;;;14.35;10.77;;;20.20;99.90;;;;;;5080323;28;20016;-64
2022/08/25 07:07:51;;;;;;;16.52;10.13;;;20.20;99.90;;;;;;5087661;28;20723;-63
2022/08/25 07:10:16;;;;;;;9.73;8.45;;;20.30;99.90;;;;;;5085153;28;20024;-63
2022/08/25 07:12:42;;;;;;;13.43;10.23;;;20.40;99.90;;;;;;5086350;28;20108;-62
2022/08/25 07:15:08;;;;;;;12.32;8.70;;;20.40;99.90;;;;;;5086208;28;20032;-62
2022/08/25 07:17:33;;;;;;;11.27;8.07;;;20.50;99.90;;;;;;5089985;28;20517;-62
2022/08/25 07:19:59;;;;;;;13.50;9.50;;;20.60;99.90;;;;;;5072503;28;20415;-62
2022/08/25 07:22:24;;;;;;;15.63;10.07;;;20.60;99.90;;;;;;5100365;28;20054;-62
2022/08/25 07:24:50;;;;;;;13.35;9.15;;;20.60;99.90;;;;;;5081837;28;20031;-62
2022/08/25 07:27:15;;;;;;;10.95;9.25;;;20.50;99.90;;;;;;5080397;28;20063;-62
2022/08/25 07:29:41;;;;;;;10.73;9.30;;;20.60;99.90;;;;;;5101712;28;20032;-62
2022/08/25 07:32:06;;;;;;;9.48;8.48;;;20.70;99.90;;;;;;5093213;28;20036;-62
2022/08/25 07:37:17;;;;;;;14.90;9.98;;;20.80;99.90;;;;;;5069464;28;20158;-62
2022/08/25 07:39:43;;;;;;;11.32;8.52;;;20.90;99.90;;;;;;5107118;28;20050;-62
2022/08/25 07:42:12;;;;;;;12.07;9.55;;;20.90;99.90;;;;;;5110046;28;20044;-62
2022/08/25 07:44:37;;;;;;;11.88;9.30;;;21.00;99.90;;;;;;5083169;28;20016;-62
2022/08/25 07:47:03;;;;;;;12.68;9.23;;;21.10;99.90;;;;;;5084562;28;20035;-62
2022/08/25 07:49:29;;;;;;;8.73;7.72;;;21.40;99.90;;;;;;5083388;28;20373;-62
2022/08/25 07:51:54;;;;;;;9.27;7.00;;;21.70;99.90;;;;;;5088359;28;20028;-62
2022/08/25 07:54:20;;;;;;;9.15;7.68;;;21.90;99.90;;;;;;5095081;28;20153;-63
2022/08/25 07:56:45;;;;;;;7.80;6.43;;;22.10;99.90;;;;;;5083031;28;20125;-63
2022/08/25 07:59:11;;;;;;;7.22;5.75;;;22.30;99.90;;;;;;5085189;28;20046;-63
2022/08/25 08:01:38;;;;;;;11.95;7.90;;;22.40;99.90;;;;;;5075678;28;20038;-62
2022/08/25 08:04:04;;;;;;;8.80;7.10;;;22.40;99.90;;;;;;5086857;28;20016;-62
2022/08/25 08:06:30;;;;;;;8.30;7.22;;;22.50;99.90;;;;;;5082033;28;20021;-61
2022/08/25 08:08:56;;;;;;;8.57;6.50;;;22.50;99.90;;;;;;5088434;28;20024;-62
2022/08/25 08:11:25;;;;;;;10.73;7.35;;;22.50;99.90;;;;;;5068519;28;20082;-62
2022/08/25 08:13:53;;;;;;;8.30;7.22;;;22.50;99.90;;;;;;5102769;28;20110;-62
2022/08/25 08:16:19;;;;;;;7.60;6.80;;;22.50;99.90;;;;;;5090982;28;20024;-62
2022/08/25 08:18:45;;;;;;;9.02;7.03;;;22.50;99.90;;;;;;5084069;28;20036;-62
2022/08/25 08:21:17;;;;;;;9.10;7.07;;;22.60;99.90;;;;;;5074855;28;20020;-62
2022/08/25 08:23:43;;;;;;;9.07;7.10;;;22.70;99.90;;;;;;5084837;28;20020;-62
2022/08/25 08:26:09;;;;;;;8.23;7.25;;;22.60;99.90;;;;;;5080602;28;20078;-62
2022/08/25 08:28:34;;;;;;;8.60;7.50;;;22.60;99.90;;;;;;5103606;28;20031;-62
2022/08/25 08:31:00;;;;;;;10.57;7.43;;;22.70;99.90;;;;;;5088028;28;20718;-62
2022/08/25 08:33:26;;;;;;;11.13;6.70;;;22.70;99.90;;;;;;5084163;28;20039;-54
2022/08/25 08:36:00;;;;;;;9.05;7.43;;;22.80;99.90;;;;;;5086533;28;20029;-54
2022/08/25 08:38:26;;;;;;;12.23;7.60;;;22.90;99.90;;;;;;5076387;28;20058;-59
2022/08/25 08:44:33;;;;;;;9.85;7.90;;;23.20;99.90;;;;;;5070275;28;20595;-59
2022/08/25 08:47:37;;;;;;;13.20;8.05;;;23.20;98.30;;;;;;5090143;28;20481;-59
2022/08/25 08:50:21;;;;;;;13.05;7.57;;;23.10;99.20;;;;;;5078953;28;20539;-59
2022/08/25 08:53:08;;;;;;;6.30;5.70;;;23.30;99.90;;;;;;5070627;28;20062;-59
2022/08/25 08:55:47;;;;;;;10.10;6.80;;;23.60;98.10;;;;;;5085818;28;20036;-59
2022/08/25 08:58:39;;;;;;;7.07;6.35;;;23.60;96.30;;;;;;5099057;28;20115;-59
2022/08/25 09:01:06;;;;;;;9.40;7.15;;;23.70;95.90;;;;;;5086875;28;20032;-59
2022/08/25 09:03:47;;;;;;;9.23;7.32;;;23.70;97.10;;;;;;5102771;28;20035;-59
2022/08/25 09:06:22;;;;;;;8.65;7.05;;;23.80;96.20;;;;;;5080824;28;20119;-59
2022/08/25 09:08:48;;;;;;;10.80;7.82;;;24.20;97.80;;;;;;5076611;28;20571;-58
2022/08/25 09:11:37;;;;;;;6.32;5.20;;;24.40;95.60;;;;;;5084465;28;20114;-59
2022/08/25 09:14:37;;;;;;;7.95;6.85;;;24.60;93.80;;;;;;5079877;28;20180;-59
2022/08/25 09:17:18;;;;;;;8.75;6.25;;;24.70;90.10;;;;;;5087734;28;20033;-59
2022/08/25 09:19:52;;;;;;;11.27;6.38;;;24.70;86.60;;;;;;5070206;28;20044;-59
2022/08/25 09:22:52;;;;;;;9.35;5.85;;;24.70;89.10;;;;;;5090154;28;20043;-59
2022/08/25 09:25:34;;;;;;;10.23;6.13;;;24.90;89.00;;;;;;5080456;28;20033;-59
2022/08/25 09:28:20;;;;;;;7.10;5.53;;;25.00;87.80;;;;;;5084264;28;20095;-60
2022/08/25 09:31:03;;;;;;;8.48;5.65;;;25.10;88.00;;;;;;5079554;28;20026;-60
2022/08/25 09:33:31;;;;;;;7.10;5.05;;;25.20;89.00;;;;;;5077829;28;20052;-59
2022/08/25 09:35:57;;;;;;;12.77;6.50;;;25.50;90.10;;;;;;5078462;28;20095;-60
2022/08/25 09:38:25;;;;;;;7.60;4.97;;;25.70;76.20;;;;;;5083071;28;20502;-60
2022/08/25 09:40:54;;;;;;;8.27;6.25;;;25.90;88.70;;;;;;5083550;28;20294;-59
2022/08/25 09:43:40;;;;;;;10.07;5.88;;;26.10;79.00;;;;;;5089848;28;20086;-60
2022/08/25 09:46:13;;;;;;;;;;;26.20;72.40;;;;;;5074970;28;20035;-60
2022/08/25 09:48:52;;;;;;;12.25;6.30;;;26.40;70.00;;;;;;5075586;28;19911;-60
2022/08/25 09:51:41;;;;;;;12.00;5.70;;;26.40;69.20;;;;;;5086593;28;20207;-60
2022/08/25 09:54:12;;;;;;;10.57;5.95;;;26.10;69.50;;;;;;5081533;28;20142;-60
2022/08/25 09:56:53;;;;;;;6.72;5.22;;;25.90;72.00;;;;;;5082630;28;20393;-59
2022/08/25 09:59:26;;;;;;;9.85;4.80;;;26.00;72.60;;;;;;5089734;28;20032;-60
2022/08/25 10:01:53;;;;;;;6.28;5.00;;;26.00;74.90;;;;;;5070227;28;20086;-60
2022/08/25 10:04:33;;;;;;;10.70;5.90;;;26.20;74.70;;;;;;5094277;28;20115;-59
2022/08/25 10:07:01;;;;;;;8.60;5.55;;;26.20;70.80;;;;;;5073615;28;20087;-59
2022/08/25 10:09:33;;;;;;;11.27;6.03;;;26.20;70.40;;;;;;5098764;28;20107;-59
2022/08/25 10:12:01;;;;;;;6.45;5.22;;;26.30;72.10;;;;;;5076002;28;20050;-59
2022/08/25 10:14:35;;;;;;;10.98;4.35;;;26.40;72.10;;;;;;5093098;28;20031;-59
2022/08/25 10:17:23;;;;;;;5.95;3.95;;;26.70;71.40;;;;;;5067972;28;20031;-59
2022/08/25 10:20:10;;;;;;;9.23;4.95;;;26.90;68.10;;;;;;5076517;28;20124;-59
2022/08/25 10:22:38;;;;;;;8.27;4.68;;;27.00;64.50;;;;;;5078617;28;20036;-60
2022/08/25 10:25:09;;;;;;;9.45;5.95;;;26.90;68.40;;;;;;5102215;28;20024;-59
2022/08/25 10:27:59;;;;;;;6.93;4.85;;;26.80;63.80;;;;;;5073055;28;20404;-60
2022/08/25 10:30:27;;;;;;;18.42;5.20;;;26.70;65.30;;;;;;5094949;28;20040;-59
2022/08/25 10:33:01;;;;;;;6.90;4.53;;;26.50;67.40;;;;;;5089361;28;20039;-54
2022/08/25 10:35:56;;;;;;;7.53;5.05;;;26.30;69.30;;;;;;5095752;28;20094;-54
2022/08/25 10:38:51;;;;;;;7.85;4.40;;;26.20;69.50;;;;;;5066360;28;20037;-53
2022/08/25 10:41:34;;;;;;;7.73;4.43;;;26.30;68.10;;;;;;5089713;28;20074;-50
2022/08/25 10:45:41;;;;;;;10.55;5.43;;;26.40;69.90;;;;;;5076617;28;20280;-48
2022/08/25 10:47:08;;;;;;;9.68;5.45;;;26.50;67.00;;;;;;5095536;28;20039;-53
2022/08/25 10:49:44;;;;;;;8.35;4.57;;;26.30;66.90;;;;;;5074120;28;20036;-47
2022/08/25 10:52:18;;;;;;;7.43;4.50;;;26.30;67.70;;;;;;5097014;28;20023;-50
2022/08/25 10:54:54;;;;;;;7.25;3.90;;;26.50;67.00;;;;;;5088458;28;20035;-49
2022/08/25 10:57:31;;;;;;;7.35;4.45;;;26.70;66.10;;;;;;5067641;28;20031;-48
2022/08/25 11:00:11;;;;;;;9.60;5.05;;;26.80;66.50;;;;;;5078762;28;20550;-47
2022/08/25 11:03:02;;;;;;;8.35;4.78;;;26.80;64.30;;;;;;5067654;28;20384;-49
2022/08/25 11:05:40;;;;;;;5.53;4.35;;;27.00;64.40;;;;;;5099886;28;20455;-48
2022/08/25 11:08:24;;;;;;;9.50;4.43;;;26.90;63.10;;;;;;5074593;28;20025;-47
2022/08/25 11:11:05;;;;;;;7.18;4.80;;;27.00;65.20;;;;;;5096097;28;20035;-47
2022/08/25 11:13:51;;;;;;;8.00;4.63;;;27.00;64.40;;;;;;5066522;28;20036;-48
2022/08/25 11:16:20;;;;;;;;;;;26.90;64.00;;;;;;5066379;28;20028;-50
2022/08/25 11:19:00;;;;;;;8.10;4.68;;;26.90;61.70;;;;;;5093919;28;19923;-50
2022/08/25 11:21:38;;;;;;;8.98;4.70;;;27.00;62.50;;;;;;5093387;28;20032;-50
2022/08/25 11:24:28;;;;;;;9.18;4.50;;;27.10;63.40;;;;;;5079629;28;20028;-48
2022/08/25 11:26:56;;;;;;;11.82;4.63;;;27.10;63.40;;;;;;5082048;28;20055;-48
2022/08/25 11:29:30;;;;;;;7.93;4.90;;;27.10;63.30;;;;;;5098716;28;20370;-49
2022/08/25 11:31:59;;;;;;;10.55;4.65;;;27.10;61.90;;;;;;5081561;28;20028;-49
2022/08/25 11:34:29;;;;;;;9.85;4.32;;;27.00;62.90;;;;;;5091554;28;20055;-49
2022/08/25 11:37:25;;;;;;;8.38;4.82;;;26.90;62.50;;;;;;5067538;28;20093;-50
2022/08/25 11:40:18;;;;;;;7.18;4.57;;;27.00;61.70;;;;;;5087428;28;20075;-47
2022/08/25 11:43:09;;;;;;;11.27;5.13;;;26.90;62.60;;;;;;5079694;28;20116;-50
2022/08/25 11:45:56;;;;;;;7.07;4.63;;;27.00;62.90;;;;;;5097530;28;20031;-47
2022/08/25 11:48:53;;;;;;;8.40;4.60;;;27.10;61.50;;;;;;5075348;28;20031;-50
2022/08/25 11:51:44;;;;;;;8.88;5.15;;;27.00;61.00;;;;;;5072170;28;20448;-50
2022/08/25 11:54:35;;;;;;;7.45;4.50;;;27.00;61.00;;;;;;5074327;28;20088;-48
2022/08/25 11:57:03;;;;;;;8.00;5.03;;;27.00;61.40;;;;;;5080580;28;20473;-47
2022/08/25 11:59:56;;;;;;;6.63;4.57;;;27.00;62.00;;;;;;5102966;28;20058;-48
2022/08/25 12:02:42;;;;;;;12.98;5.53;;;27.10;60.70;;;;;;5077684;28;20036;-47
2022/08/25 12:05:20;;;;;;;9.88;4.50;;;27.10;60.60;;;;;;5079566;28;20036;-50
2022/08/25 12:07:46;;;;;;;13.82;4.97;;;27.20;60.10;;;;;;5103415;28;20115;-50
2022/08/25 12:10:23;;;;;;;10.65;5.28;;;27.30;57.70;;;;;;5076802;28;20146;-51
2022/08/25 12:13:01;;;;;;;9.60;5.18;;;27.30;58.30;;;;;;5073108;28;20077;-52
2022/08/25 12:15:30;;;;;;;8.25;4.95;;;27.40;58.50;;;;;;5078808;28;20622;-52
2022/08/25 12:18:21;;;;;;;13.20;4.80;;;27.40;58.10;;;;;;5081683;28;20031;-48
2022/08/25 12:20:53;;;;;;;10.75;5.55;;;27.50;57.20;;;;;;5080793;28;20062;-47
2022/08/25 12:23:31;;;;;;;8.05;4.53;;;27.40;56.40;;;;;;5078112;28;20032;-50
2022/08/25 12:26:18;;;;;;;8.77;5.38;;;27.20;56.40;;;;;;5075564;28;20091;-54
2022/08/25 12:28:46;;;;;;;8.68;4.68;;;27.10;57.70;;;;;;5072397;28;20016;-51
2022/08/25 12:31:23;;;;;;;12.55;5.03;;;27.10;59.20;;;;;;5097658;28;20072;-48
2022/08/25 12:34:12;;;;;;;9.48;5.85;;;27.00;58.20;;;;;;5084942;28;20629;-54
2022/08/25 12:36:37;;;;;;;12.63;5.38;;;26.80;59.40;;;;;;5074157;28;20102;-47
2022/08/25 12:39:27;;;;;;;10.45;5.47;;;26.70;59.50;;;;;;5090368;28;20094;-50
2022/08/25 12:41:58;;;;;;;11.43;5.70;;;26.80;58.00;;;;;;5069758;28;20024;-49
2022/08/25 12:44:43;;;;;;;11.10;5.40;;;26.70;59.30;;;;;;5076385;28;20571;-48
2022/08/25 12:47:28;;;;;;;11.15;5.85;;;26.80;58.10;;;;;;5079531;28;20055;-51
2022/08/25 12:50:31;;;;;;;12.35;5.32;;;26.90;58.90;;;;;;5090159;28;20093;-49
2022/08/25 12:53:23;;;;;;;16.95;5.68;;;26.90;57.40;;;;;;5072609;28;20021;-52
2022/08/25 12:55:55;;;;;;;11.55;5.40;;;26.90;58.70;;;;;;5095389;28;20138;-52
2022/08/25 12:58:31;;;;;;;9.80;5.28;;;27.00;58.60;;;;;;5073261;28;20039;-50
2022/08/25 13:01:17;;;;;;;10.35;5.00;;;27.10;58.10;;;;;;5082385;28;20214;-49
2022/08/25 13:04:12;;;;;;;11.77;5.47;;;27.20;57.10;;;;;;5083200;28;20027;-51
2022/08/25 13:07:05;;;;;;;16.55;5.20;;;27.30;54.50;;;;;;5078084;28;20320;-50
2022/08/25 13:09:52;;;;;;;12.27;5.72;;;27.40;53.40;;;;;;5077685;28;20193;-52
2022/08/25 13:12:25;;;;;;;7.63;4.32;;;27.40;55.20;;;;;;5081166;28;20546;-54